Time;durP1;ratioP1;P1;durP2;ratioP2;P2;SDS_P1;SDS_P2;PMS_P1;PMS_P2;Temp;Humidity;BMP_temperature;BMP_pressure;BME280_temperature;BME280_humidity;BME280_pressure;Samples;Min_cycle;Max_cycle;Signal;HPM_P1;HPM_P2
2021/12/22 00:00:30;;;;;;;13.00;11.80;;;;;20.20;101469.00;;;;2070833;28;20613;-44
2021/12/22 00:01:32;;;;;;;13.27;12.07;;;;;20.20;101472.00;;;;2071768;28;20295;-44
2021/12/22 00:02:34;;;;;;;13.70;12.40;;;;;20.20;101464.00;;;;2068975;28;20781;-44
2021/12/22 00:03:34;;;;;;;13.18;12.07;;;;;20.30;101470.00;;;;2071536;28;20234;-45
2021/12/22 00:04:43;;;;;;;14.17;12.80;;;;;20.20;101472.00;;;;2071628;28;20218;-45
2021/12/22 00:05:46;;;;;;;13.32;12.13;;;;;20.20;101472.00;;;;2071468;28;20222;-45
2021/12/22 00:06:46;;;;;;;12.55;11.40;;;;;20.20;101478.00;;;;2071465;28;20211;-44
2021/12/22 00:07:46;;;;;;;13.60;12.33;;;;;20.20;101480.00;;;;2071627;28;20260;-44
2021/12/22 00:08:47;;;;;;;12.67;11.57;;;;;20.20;101478.00;;;;2070907;28;20632;-44
2021/12/22 00:09:47;;;;;;;13.80;12.60;;;;;20.10;101470.00;;;;2070779;28;20666;-45
2021/12/22 00:10:51;;;;;;;13.50;12.30;;;;;20.20;101479.00;;;;2070614;28;20210;-45
2021/12/22 00:11:51;;;;;;;13.30;12.10;;;;;20.20;101477.00;;;;2062885;28;20707;-45
2021/12/22 00:12:51;;;;;;;13.27;12.13;;;;;20.20;101478.00;;;;2063022;28;21718;-44
2021/12/22 00:13:52;;;;;;;12.80;11.70;;;;;20.10;101483.00;;;;2071076;28;20225;-44
2021/12/22 00:14:52;;;;;;;14.10;12.90;;;;;20.10;101475.00;;;;2070787;28;20225;-45
2021/12/22 00:15:53;;;;;;;12.93;11.83;;;;;20.10;101480.00;;;;2071676;28;20234;-44
2021/12/22 00:16:53;;;;;;;12.10;11.10;;;;;20.10;101472.00;;;;2071748;28;20234;-44
2021/12/22 00:17:55;;;;;;;12.93;11.83;;;;;20.10;101475.00;;;;2071246;28;20722;-45
2021/12/22 00:18:55;;;;;;;14.13;12.85;;;;;20.10;101468.00;;;;2070791;28;20686;-45
2021/12/22 00:19:56;;;;;;;13.67;12.37;;;;;20.10;101473.00;;;;2070779;28;20293;-44
2021/12/22 00:20:56;;;;;;;13.67;12.47;;;;;20.10;101476.00;;;;2070718;28;20214;-44
2021/12/22 00:21:56;;;;;;;12.93;11.83;;;;;20.10;101474.00;;;;2071368;28;21314;-44
2021/12/22 00:22:57;;;;;;;13.30;12.17;;;;;20.10;101476.00;;;;2071544;28;20229;-44
2021/12/22 00:23:57;;;;;;;13.00;12.00;;;;;20.10;101480.00;;;;2071467;28;20226;-44
2021/12/22 00:24:58;;;;;;;13.00;11.90;;;;;20.00;101475.00;;;;2071537;28;20238;-44
2021/12/22 00:25:58;;;;;;;12.60;11.50;;;;;20.00;101474.00;;;;2071667;28;20492;-44
2021/12/22 00:26:59;;;;;;;12.20;11.10;;;;;20.00;101481.00;;;;2070848;28;20222;-44
2021/12/22 00:27:59;;;;;;;12.73;11.70;;;;;20.10;101469.00;;;;2069810;28;20686;-44
2021/12/22 00:29:00;;;;;;;12.70;11.60;;;;;20.00;101477.00;;;;2071743;28;20222;-44
2021/12/22 00:30:00;;;;;;;12.30;11.20;;;;;20.00;101480.00;;;;2071191;28;20816;-44
2021/12/22 00:31:01;;;;;;;13.70;12.50;;;;;20.00;101471.00;;;;2070448;28;20229;-44
2021/12/22 00:32:13;;;;;;;13.40;12.30;;;;;20.00;101477.00;;;;2071436;28;20236;-45
2021/12/22 00:33:14;;;;;;;14.07;12.68;;;;;20.00;101482.00;;;;2071424;28;20214;-45
2021/12/22 00:34:17;;;;;;;12.77;11.73;;;;;20.00;101476.00;;;;2071496;28;20595;-44
2021/12/22 00:35:23;;;;;;;12.18;11.07;;;;;20.00;101476.00;;;;2071312;28;20226;-44
2021/12/22 00:36:24;;;;;;;13.05;11.85;;;;;20.00;101480.00;;;;2071369;28;20283;-44
2021/12/22 00:37:26;;;;;;;13.00;11.80;;;;;20.00;101472.00;;;;2071605;28;20233;-44
2021/12/22 00:38:27;;;;;;;11.35;10.35;;;;;20.00;101476.00;;;;2071463;28;20481;-44
2021/12/22 00:39:27;;;;;;;12.80;11.63;;;;;19.90;101473.00;;;;2071338;28;20229;-44
2021/12/22 00:40:27;;;;;;;12.47;11.27;;;;;20.00;101465.00;;;;2070635;28;20684;-44
2021/12/22 00:41:28;;;;;;;12.20;11.20;;;;;20.00;101476.00;;;;2071263;28;20639;-45
2021/12/22 00:42:28;;;;;;;13.00;11.73;;;;;19.90;101475.00;;;;2071467;28;20214;-44
2021/12/22 00:43:28;;;;;;;13.00;11.90;;;;;19.80;101468.00;;;;2071237;28;20308;-44
2021/12/22 00:44:29;;;;;;;12.50;11.40;;;;;19.90;101478.00;;;;2071371;28;20210;-44
2021/12/22 00:45:32;;;;;;;13.07;11.97;;;;;19.90;101468.00;;;;2071322;28;20214;-44
2021/12/22 00:46:32;;;;;;;12.13;11.13;;;;;19.90;101476.00;;;;2071509;28;20222;-45
2021/12/22 00:47:32;;;;;;;12.53;11.53;;;;;19.90;101476.00;;;;2071291;28;20214;-44
2021/12/22 00:48:33;;;;;;;12.27;11.20;;;;;19.90;101477.00;;;;2071115;28;20764;-44
2021/12/22 00:49:33;;;;;;;12.73;11.67;;;;;19.90;101483.00;;;;2071386;28;20206;-44
2021/12/22 00:50:34;;;;;;;13.00;11.80;;;;;19.90;101481.00;;;;2070327;28;20210;-44
2021/12/22 00:51:34;;;;;;;12.80;11.70;;;;;19.80;101477.00;;;;2071273;28;20227;-44
2021/12/22 00:52:35;;;;;;;12.47;11.47;;;;;19.90;101481.00;;;;2070261;28;20214;-44
2021/12/22 00:53:35;;;;;;;12.80;11.70;;;;;19.90;101477.00;;;;2060867;28;20214;-44
2021/12/22 00:54:35;;;;;;;12.80;11.70;;;;;19.90;101475.00;;;;2079010;28;20217;-44
2021/12/22 00:55:36;;;;;;;12.57;11.47;;;;;19.80;101468.00;;;;2071392;28;20686;-44
2021/12/22 00:56:37;;;;;;;12.37;11.33;;;;;19.90;101471.00;;;;2071337;28;20683;-44
2021/12/22 00:57:39;;;;;;;12.32;11.32;;;;;19.80;101475.00;;;;2064995;28;20214;-44
2021/12/22 00:58:39;;;;;;;12.17;11.17;;;;;19.80;101467.00;;;;2069634;28;20735;-45
2021/12/22 00:59:39;;;;;;;14.20;12.97;;;;;19.80;101473.00;;;;2071503;28;20476;-45
2021/12/22 01:00:40;;;;;;;13.13;11.97;;;;;19.90;101469.00;;;;2070439;28;20214;-45
2021/12/22 01:01:40;;;;;;;13.30;12.17;;;;;19.90;101466.00;;;;2071060;28;20202;-45
2021/12/22 01:02:41;;;;;;;13.17;12.07;;;;;19.80;101463.00;;;;2070758;28;20593;-45
2021/12/22 01:03:41;;;;;;;12.77;11.57;;;;;19.80;101462.00;;;;2064362;28;20272;-45
2021/12/22 01:04:41;;;;;;;12.23;11.17;;;;;19.80;101469.00;;;;2076251;28;20221;-45
2021/12/22 01:05:42;;;;;;;13.17;11.97;;;;;19.80;101467.00;;;;2077561;28;20217;-45
2021/12/22 01:06:42;;;;;;;11.93;10.83;;;;;19.80;101467.00;;;;2070678;28;20214;-45
2021/12/22 01:07:44;;;;;;;12.30;11.27;;;;;19.80;101472.00;;;;2070534;28;20222;-45
2021/12/22 01:08:44;;;;;;;12.52;11.43;;;;;19.80;101470.00;;;;2070895;28;20221;-45
2021/12/22 01:09:45;;;;;;;13.23;11.93;;;;;19.80;101462.00;;;;2070898;28;20245;-45
2021/12/22 01:10:45;;;;;;;12.47;11.37;;;;;19.80;101462.00;;;;2069702;28;20221;-45
2021/12/22 01:11:45;;;;;;;12.60;11.50;;;;;19.70;101463.00;;;;2070674;28;20218;-45
2021/12/22 01:12:46;;;;;;;13.10;11.93;;;;;19.80;101461.00;;;;2071305;28;20311;-44
2021/12/22 01:13:46;;;;;;;12.70;11.40;;;;;19.80;101463.00;;;;2071137;28;20214;-44
2021/12/22 01:14:47;;;;;;;11.97;10.97;;;;;19.70;101489.00;;;;2071254;28;20798;-45
2021/12/22 01:15:47;;;;;;;13.20;12.10;;;;;19.70;101472.00;;;;2071064;28;20804;-45
2021/12/22 01:16:50;;;;;;;12.60;11.50;;;;;19.70;101465.00;;;;2069625;28;20587;-45
2021/12/22 01:17:58;;;;;;;12.55;11.40;;;;;19.70;101465.00;;;;2070944;28;20230;-44
2021/12/22 01:19:03;;;;;;;11.80;10.77;;;;;19.70;101465.00;;;;2070548;28;20218;-44
2021/12/22 01:20:13;;;;;;;12.68;11.57;;;;;19.70;101470.00;;;;2070415;28;20241;-44
2021/12/22 01:22:28;;;;;;;12.00;11.00;;;;;19.70;101467.00;;;;2071268;28;20222;-45
2021/12/22 01:23:34;;;;;;;13.73;12.45;;;;;19.70;101467.00;;;;2071222;28;20213;-44
2021/12/22 01:24:35;;;;;;;12.68;11.55;;;;;19.70;101467.00;;;;2070933;28;20214;-45
2021/12/22 01:25:38;;;;;;;12.73;11.63;;;;;19.60;101472.00;;;;2070776;28;20218;-44
2021/12/22 01:26:44;;;;;;;13.77;12.48;;;;;19.60;101473.00;;;;2071054;28;20218;-45
2021/12/22 01:27:44;;;;;;;12.73;11.63;;;;;19.60;101470.00;;;;2070828;28;20241;-45
2021/12/22 01:28:45;;;;;;;13.00;11.80;;;;;19.60;101474.00;;;;2071025;28;20210;-45
2021/12/22 01:29:45;;;;;;;12.40;11.40;;;;;19.60;101470.00;;;;2071168;28;20230;-45
2021/12/22 01:30:48;;;;;;;13.57;12.43;;;;;19.60;101466.00;;;;2070054;28;20210;-45
2021/12/22 01:31:49;;;;;;;12.20;11.20;;;;;19.60;101473.00;;;;2070697;28;20250;-45
2021/12/22 01:32:52;;;;;;;12.90;11.70;;;;;19.60;101465.00;;;;2071027;28;20214;-44
2021/12/22 01:33:52;;;;;;;12.73;11.63;;;;;19.60;101478.00;;;;2070937;28;20457;-44
2021/12/22 01:34:52;;;;;;;12.90;11.70;;;;;19.60;101476.00;;;;2068454;28;20214;-44
2021/12/22 01:35:53;;;;;;;13.40;12.20;;;;;19.60;101467.00;;;;2070367;28;20221;-44
2021/12/22 01:36:53;;;;;;;12.50;11.40;;;;;19.60;101479.00;;;;2070593;28;20774;-45
2021/12/22 01:37:54;;;;;;;12.03;11.00;;;;;19.60;101471.00;;;;2071013;28;20237;-44
2021/12/22 01:38:54;;;;;;;12.53;11.43;;;;;19.60;101477.00;;;;2071045;28;20276;-44
2021/12/22 01:39:55;;;;;;;12.50;11.40;;;;;19.60;101469.00;;;;2071005;28;20215;-44
2021/12/22 01:40:55;;;;;;;11.97;10.97;;;;;19.60;101469.00;;;;2070010;28;20457;-44
2021/12/22 01:41:56;;;;;;;12.00;10.90;;;;;19.60;101477.00;;;;2070736;28;20206;-45
2021/12/22 01:42:56;;;;;;;12.20;11.20;;;;;19.60;101464.00;;;;2070635;28;20206;-44
2021/12/22 01:43:57;;;;;;;12.23;11.23;;;;;19.60;101473.00;;;;2070693;28;20289;-44
2021/12/22 01:50:07;;;;;;;12.27;11.18;;;;;19.50;101468.00;;;;2070840;28;20222;-44
2021/12/22 01:51:08;;;;;;;11.67;10.60;;;;;19.50;101469.00;;;;2061138;28;21048;-44
2021/12/22 01:52:08;;;;;;;12.63;11.43;;;;;19.50;101475.00;;;;2062087;28;20243;-45
2021/12/22 01:53:21;;;;;;;11.30;10.30;;;;;19.50;101479.00;;;;2071049;28;20473;-44
2021/12/22 01:54:43;;;;;;;12.38;11.38;;;;;19.40;101481.00;;;;2070594;28;20218;-45
2021/12/22 01:55:43;;;;;;;12.40;11.32;;;;;19.50;101481.00;;;;2070922;28;20220;-45
2021/12/22 01:56:44;;;;;;;11.43;10.43;;;;;19.50;101479.00;;;;2070030;28;20221;-44
2021/12/22 01:57:46;;;;;;;11.97;11.00;;;;;19.40;101485.00;;;;2068829;28;20214;-45
2021/12/22 01:58:48;;;;;;;12.02;10.85;;;;;19.40;101489.00;;;;2070492;28;20543;-44
2021/12/22 01:59:50;;;;;;;12.00;10.93;;;;;19.40;101487.00;;;;2070045;28;20229;-45
2021/12/22 02:00:50;;;;;;;12.80;11.60;;;;;19.40;101492.00;;;;2069398;28;20218;-45
2021/12/22 02:01:51;;;;;;;12.83;11.70;;;;;19.50;101488.00;;;;2070553;28;20210;-45
2021/12/22 02:02:51;;;;;;;12.60;11.50;;;;;19.50;101486.00;;;;2069921;28;20214;-45
2021/12/22 02:03:52;;;;;;;11.90;10.80;;;;;19.50;101499.00;;;;2070195;28;20453;-44
2021/12/22 02:04:53;;;;;;;12.60;11.50;;;;;19.40;101494.00;;;;2070683;28;20260;-45
2021/12/22 02:05:53;;;;;;;11.90;10.90;;;;;19.40;101493.00;;;;2070902;28;20261;-45
2021/12/22 02:06:53;;;;;;;12.23;10.97;;;;;19.40;101494.00;;;;2068301;28;20457;-44
2021/12/22 02:07:57;;;;;;;12.13;11.10;;;;;19.40;101500.00;;;;2069280;28;20309;-45
2021/12/22 02:08:59;;;;;;;11.98;10.93;;;;;19.40;101499.00;;;;2066037;28;20225;-45
2021/12/22 02:10:59;;;;;;;12.07;11.07;;;;;19.40;101492.00;;;;2069858;28;20214;-44
2021/12/22 02:12:00;;;;;;;12.73;11.53;;;;;19.40;101495.00;;;;2070744;28;20226;-44
2021/12/22 02:13:02;;;;;;;11.90;10.90;;;;;19.40;101493.00;;;;2070651;28;21193;-44
2021/12/22 02:14:05;;;;;;;12.38;11.30;;;;;19.40;101495.00;;;;2070798;28;20481;-45
2021/12/22 02:15:06;;;;;;;12.23;10.85;;;;;19.40;101491.00;;;;2070501;28;20218;-44
2021/12/22 02:16:10;;;;;;;12.35;11.25;;;;;19.40;101491.00;;;;2070323;28;20214;-44
2021/12/22 02:17:12;;;;;;;12.30;11.13;;;;;19.40;101487.00;;;;2070526;28;20280;-44
2021/12/22 02:18:18;;;;;;;12.10;11.10;;;;;19.30;101489.00;;;;2070037;28;20373;-44
2021/12/22 02:19:19;;;;;;;12.57;11.48;;;;;19.40;101485.00;;;;2063052;28;20234;-44
2021/12/22 02:20:19;;;;;;;12.43;11.33;;;;;19.30;101484.00;;;;2062140;28;20227;-44
2021/12/22 02:21:21;;;;;;;11.80;10.70;;;;;19.30;101481.00;;;;2069734;28;20297;-44
2021/12/22 02:22:23;;;;;;;12.30;11.25;;;;;19.30;101478.00;;;;2070303;28;20206;-45
2021/12/22 02:23:23;;;;;;;11.73;10.73;;;;;19.40;101486.00;;;;2070695;28;20211;-45
2021/12/22 02:24:23;;;;;;;11.93;10.93;;;;;19.40;101474.00;;;;2070666;28;20600;-44
2021/12/22 02:25:34;;;;;;;11.97;10.97;;;;;19.40;101478.00;;;;2067272;28;20529;-45
2021/12/22 02:26:40;;;;;;;13.13;11.93;;;;;19.30;101472.00;;;;2070694;28;20202;-45
2021/12/22 02:27:54;;;;;;;12.65;11.55;;;;;19.40;101482.00;;;;2070455;28;20229;-44
2021/12/22 02:29:00;;;;;;;11.80;10.80;;;;;19.30;101477.00;;;;2070364;28;20221;-45
2021/12/22 02:30:04;;;;;;;12.15;11.05;;;;;19.30;101479.00;;;;2070601;28;20218;-44
2021/12/22 02:31:05;;;;;;;12.13;11.05;;;;;19.30;101476.00;;;;2069693;28;20218;-45
2021/12/22 02:32:19;;;;;;;12.77;11.48;;;;;19.30;101480.00;;;;2069672;28;20597;-44
2021/12/22 02:34:49;;;;;;;12.20;11.10;;;;;19.30;101467.00;;;;2060913;28;20305;-44
2021/12/22 02:37:12;;;;;;;11.25;10.27;;;;;19.30;101468.00;;;;2063549;28;20486;-44
2021/12/22 02:38:17;;;;;;;11.80;10.75;;;;;19.10;101464.00;;;;2067356;28;21206;-44
2021/12/22 02:39:18;;;;;;;11.75;10.77;;;;;19.20;101463.00;;;;2069857;28;20272;-44
2021/12/22 02:40:25;;;;;;;12.40;11.30;;;;;19.20;101469.00;;;;2069596;28;20218;-44
2021/12/22 02:41:28;;;;;;;12.10;11.10;;;;;19.30;101468.00;;;;2069996;28;20301;-45
2021/12/22 02:42:29;;;;;;;12.23;11.23;;;;;19.30;101462.00;;;;2070369;28;20711;-45
2021/12/22 02:43:33;;;;;;;11.93;11.00;;;;;19.20;101466.00;;;;2070115;28;20214;-45
2021/12/22 02:44:34;;;;;;;12.27;11.18;;;;;19.20;101465.00;;;;2070707;28;20663;-45
2021/12/22 02:45:34;;;;;;;13.10;11.90;;;;;19.30;101463.00;;;;2070426;28;20221;-45
2021/12/22 02:46:36;;;;;;;13.00;11.77;;;;;19.20;101464.00;;;;2070556;28;20225;-44
2021/12/22 02:47:36;;;;;;;11.57;10.68;;;;;19.20;101465.00;;;;2070699;28;20218;-44
2021/12/22 02:48:36;;;;;;;12.20;11.00;;;;;19.20;101466.00;;;;2070669;28;20769;-44
2021/12/22 02:49:37;;;;;;;12.20;11.00;;;;;19.20;101467.00;;;;2070762;28;20249;-44
2021/12/22 02:50:37;;;;;;;12.10;11.00;;;;;19.20;101469.00;;;;2068636;28;20234;-45
2021/12/22 02:51:38;;;;;;;12.63;11.53;;;;;19.20;101455.00;;;;2070451;28;20226;-44
2021/12/22 02:53:25;;;;;;;12.50;11.30;;;;;19.20;101466.00;;;;2070385;28;20229;-44
2021/12/22 02:55:03;;;;;;;11.87;10.63;;;;;19.20;101462.00;;;;2069614;28;20222;-45
2021/12/22 02:56:17;;;;;;;11.80;10.80;;;;;19.20;101465.00;;;;2070066;28;20573;-44
2021/12/22 02:57:32;;;;;;;12.40;11.27;;;;;19.20;101463.00;;;;2069808;28;20222;-44
2021/12/22 03:00:04;;;;;;;12.17;11.07;;;;;19.20;101467.00;;;;2069873;28;20218;-45
2021/12/22 03:03:16;;;;;;;11.85;10.68;;;;;19.10;101468.00;;;;2070222;28;20272;-44
2021/12/22 03:04:27;;;;;;;12.80;11.60;;;;;19.10;101464.00;;;;2070340;28;20225;-44
2021/12/22 03:05:28;;;;;;;12.30;11.20;;;;;19.10;101455.00;;;;2069736;28;20300;-45
2021/12/22 03:06:40;;;;;;;11.65;10.55;;;;;19.10;101457.00;;;;2069803;28;20292;-45
2021/12/22 03:07:40;;;;;;;12.50;11.40;;;;;19.10;101461.00;;;;2070106;28;20210;-44
2021/12/22 03:08:40;;;;;;;11.70;10.70;;;;;19.10;101445.00;;;;2070347;28;20289;-44
2021/12/22 03:09:41;;;;;;;12.77;11.57;;;;;19.10;101464.00;;;;2069850;28;20581;-44
2021/12/22 03:10:41;;;;;;;11.50;10.50;;;;;19.00;101461.00;;;;2069381;28;20694;-44
2021/12/22 03:11:41;;;;;;;12.43;11.23;;;;;19.10;101462.00;;;;2070172;28;20222;-44
2021/12/22 03:12:42;;;;;;;12.10;11.00;;;;;19.10;101459.00;;;;2070128;28;20230;-44
2021/12/22 03:13:43;;;;;;;11.70;10.70;;;;;19.10;101459.00;;;;2070349;28;20545;-45
2021/12/22 03:14:43;;;;;;;12.00;11.00;;;;;19.10;101462.00;;;;2069812;28;20326;-44
2021/12/22 03:15:44;;;;;;;11.73;10.73;;;;;19.10;101458.00;;;;2069837;28;20238;-44
2021/12/22 03:16:44;;;;;;;12.37;11.17;;;;;19.10;101419.00;;;;2069992;28;20214;-44
2021/12/22 03:17:46;;;;;;;11.87;10.83;;;;;19.10;101461.00;;;;2069747;28;20206;-44
2021/12/22 03:18:47;;;;;;;11.73;10.57;;;;;19.10;101460.00;;;;2061802;28;20215;-45
2021/12/22 03:19:47;;;;;;;12.23;11.13;;;;;19.10;101454.00;;;;2044812;28;20224;-44
2021/12/22 03:20:56;;;;;;;11.60;10.60;;;;;19.10;101449.00;;;;2062051;28;20224;-44
2021/12/22 03:22:05;;;;;;;12.65;11.48;;;;;19.10;101455.00;;;;2071920;28;20222;-44
2021/12/22 03:23:06;;;;;;;12.40;11.23;;;;;19.10;101466.00;;;;2071438;28;20227;-45
2021/12/22 03:24:06;;;;;;;11.57;10.37;;;;;19.10;101457.00;;;;2069515;28;20325;-45
2021/12/22 03:25:17;;;;;;;11.70;10.70;;;;;19.10;101457.00;;;;2071636;28;21003;-45
2021/12/22 03:26:18;;;;;;;10.98;10.07;;;;;19.10;101453.00;;;;2071094;28;20340;-45
2021/12/22 03:27:19;;;;;;;12.48;11.32;;;;;19.00;101460.00;;;;2071604;28;20224;-45
2021/12/22 03:28:20;;;;;;;11.75;10.73;;;;;19.00;101463.00;;;;2071839;28;20218;-44
2021/12/22 03:29:20;;;;;;;11.97;10.97;;;;;19.00;101453.00;;;;2071648;28;20563;-44
2021/12/22 03:30:22;;;;;;;11.77;10.77;;;;;19.00;101449.00;;;;2071188;28;20693;-45
2021/12/22 03:31:22;;;;;;;12.35;11.25;;;;;19.00;101457.00;;;;2067879;28;20226;-44
2021/12/22 03:32:23;;;;;;;11.60;10.60;;;;;19.00;101443.00;;;;2071791;28;20217;-45
2021/12/22 03:33:23;;;;;;;11.50;10.50;;;;;19.00;101457.00;;;;2071964;28;20210;-44
2021/12/22 03:34:23;;;;;;;11.40;10.30;;;;;19.00;101446.00;;;;2071914;28;20219;-44
2021/12/22 03:35:24;;;;;;;11.77;10.77;;;;;19.00;101454.00;;;;2071922;28;20301;-44
2021/12/22 03:36:24;;;;;;;11.47;10.37;;;;;19.00;101450.00;;;;2072002;28;20268;-44
2021/12/22 03:37:25;;;;;;;11.87;10.83;;;;;19.00;101454.00;;;;2071353;28;20635;-44
2021/12/22 03:38:25;;;;;;;11.67;10.63;;;;;19.00;101452.00;;;;2071837;28;20244;-44
2021/12/22 03:39:27;;;;;;;12.50;11.40;;;;;19.00;101451.00;;;;2072103;28;20636;-44
2021/12/22 03:40:27;;;;;;;11.30;10.30;;;;;19.00;101454.00;;;;2071025;28;20243;-44
2021/12/22 03:41:28;;;;;;;12.00;10.70;;;;;19.00;101446.00;;;;2071647;28;20297;-44
2021/12/22 03:42:28;;;;;;;11.37;10.27;;;;;19.00;101443.00;;;;2071957;28;20222;-44
2021/12/22 03:43:28;;;;;;;12.33;11.13;;;;;19.00;101447.00;;;;2071506;28;20233;-44
2021/12/22 03:44:29;;;;;;;10.90;10.00;;;;;19.00;101445.00;;;;2069405;28;20206;-44
2021/12/22 03:45:29;;;;;;;11.17;10.17;;;;;19.00;101452.00;;;;2071729;28;20214;-44
2021/12/22 03:46:30;;;;;;;12.30;11.20;;;;;18.90;101445.00;;;;2071687;28;20222;-44
2021/12/22 03:47:30;;;;;;;11.23;10.23;;;;;19.00;101449.00;;;;2068182;28;20222;-45
2021/12/22 03:48:31;;;;;;;11.80;10.87;;;;;19.00;101443.00;;;;2070638;28;20555;-44
2021/12/22 03:49:31;;;;;;;11.63;10.63;;;;;19.00;101442.00;;;;2071894;28;20214;-44
2021/12/22 03:50:31;;;;;;;12.90;11.73;;;;;19.00;101449.00;;;;2070723;28;20979;-44
2021/12/22 03:51:32;;;;;;;11.17;10.23;;;;;18.90;101450.00;;;;2071652;28;20310;-44
2021/12/22 03:52:32;;;;;;;11.30;10.30;;;;;18.90;101455.00;;;;2071984;28;20234;-44
2021/12/22 03:53:33;;;;;;;11.93;10.93;;;;;19.00;101420.00;;;;2071973;28;20738;-45
2021/12/22 03:54:33;;;;;;;12.10;11.00;;;;;19.00;101454.00;;;;2069557;28;20705;-45
2021/12/22 03:55:33;;;;;;;11.60;10.70;;;;;18.90;101458.00;;;;2071761;28;20221;-45
2021/12/22 03:56:34;;;;;;;11.70;10.70;;;;;18.90;101455.00;;;;2071645;28;20256;-45
2021/12/22 03:57:34;;;;;;;12.00;10.90;;;;;18.90;101454.00;;;;2071682;28;20276;-45
2021/12/22 03:58:34;;;;;;;11.73;10.63;;;;;18.90;101455.00;;;;2071800;28;20241;-45
2021/12/22 03:59:36;;;;;;;12.53;11.37;;;;;18.90;101454.00;;;;2069442;28;20230;-45
2021/12/22 04:00:37;;;;;;;11.60;10.60;;;;;18.90;101458.00;;;;2070511;28;20260;-44
2021/12/22 04:01:38;;;;;;;12.00;11.00;;;;;18.90;101455.00;;;;2069638;28;20214;-45
2021/12/22 04:02:39;;;;;;;11.40;10.50;;;;;18.90;101449.00;;;;2071979;28;20229;-45
2021/12/22 04:03:42;;;;;;;11.90;10.90;;;;;18.90;101452.00;;;;2071071;28;20226;-45
2021/12/22 04:04:45;;;;;;;11.35;10.30;;;;;18.90;101453.00;;;;2071070;28;20241;-45
2021/12/22 04:05:46;;;;;;;11.52;10.43;;;;;18.90;101448.00;;;;2071728;28;20301;-45
2021/12/22 04:06:47;;;;;;;10.90;9.90;;;;;18.90;101456.00;;;;2071656;28;20775;-45
2021/12/22 04:07:47;;;;;;;11.17;10.27;;;;;18.90;101453.00;;;;2071785;28;20543;-45
2021/12/22 04:08:47;;;;;;;11.30;10.33;;;;;18.90;101453.00;;;;2071117;28;20221;-45
2021/12/22 04:09:48;;;;;;;12.10;11.03;;;;;18.90;101452.00;;;;2060722;28;20362;-45
2021/12/22 04:10:48;;;;;;;11.47;10.37;;;;;18.90;101450.00;;;;2069544;28;20815;-45
2021/12/22 04:11:49;;;;;;;12.67;11.57;;;;;18.90;101455.00;;;;2071274;28;20230;-45
2021/12/22 04:12:54;;;;;;;11.63;10.63;;;;;18.90;101454.00;;;;2071468;28;20237;-45
2021/12/22 04:13:54;;;;;;;11.43;10.43;;;;;18.90;101456.00;;;;2071730;28;20222;-45
2021/12/22 04:14:54;;;;;;;12.00;10.90;;;;;18.90;101450.00;;;;2070082;28;20301;-45
2021/12/22 04:15:55;;;;;;;11.03;10.03;;;;;18.80;101458.00;;;;2071427;28;20718;-45
2021/12/22 04:16:55;;;;;;;11.50;10.40;;;;;18.80;101453.00;;;;2071439;28;20269;-45
2021/12/22 04:17:55;;;;;;;10.80;9.83;;;;;18.90;101461.00;;;;2071664;28;20313;-45
2021/12/22 04:18:56;;;;;;;12.23;11.00;;;;;18.90;101457.00;;;;2071464;28;20218;-45
2021/12/22 04:19:56;;;;;;;11.73;10.70;;;;;18.90;101462.00;;;;2071817;28;20216;-45
2021/12/22 04:20:57;;;;;;;11.80;10.67;;;;;18.80;101471.00;;;;2069523;28;20218;-45
2021/12/22 04:21:57;;;;;;;11.03;10.03;;;;;18.80;101464.00;;;;2071282;28;20217;-45
2021/12/22 04:22:57;;;;;;;11.50;10.50;;;;;18.80;101477.00;;;;2071342;28;20219;-45
2021/12/22 04:23:58;;;;;;;11.33;10.33;;;;;18.80;101466.00;;;;2069275;28;20249;-45
2021/12/22 04:24:58;;;;;;;12.93;11.73;;;;;18.80;101480.00;;;;2071203;28;20214;-45
2021/12/22 04:25:59;;;;;;;11.67;10.67;;;;;18.60;101474.00;;;;2071046;28;20329;-45
2021/12/22 04:26:59;;;;;;;11.33;10.33;;;;;18.80;101475.00;;;;2067305;28;20252;-45
2021/12/22 04:28:04;;;;;;;12.23;11.17;;;;;18.80;101477.00;;;;2070054;28;20214;-45
2021/12/22 04:29:04;;;;;;;12.27;11.18;;;;;18.80;101471.00;;;;2063033;28;20317;-44
2021/12/22 04:30:07;;;;;;;11.73;10.70;;;;;18.80;101472.00;;;;2070541;28;20265;-45
2021/12/22 04:31:07;;;;;;;11.70;10.70;;;;;18.80;101476.00;;;;2069329;28;20301;-45
2021/12/22 04:32:07;;;;;;;12.10;11.00;;;;;18.80;101467.00;;;;2071115;28;20313;-45
2021/12/22 04:33:08;;;;;;;11.87;10.90;;;;;18.80;101475.00;;;;2070969;28;20729;-45
2021/12/22 04:34:08;;;;;;;11.97;10.70;;;;;18.70;101468.00;;;;2071419;28;20237;-44
2021/12/22 04:35:09;;;;;;;12.40;11.30;;;;;18.80;101476.00;;;;2070928;28;20252;-45
2021/12/22 04:36:09;;;;;;;12.53;11.43;;;;;18.80;101481.00;;;;2070366;28;20228;-45
2021/12/22 04:37:10;;;;;;;12.23;11.13;;;;;18.80;101466.00;;;;2071300;28;20237;-44
2021/12/22 04:38:10;;;;;;;11.70;10.70;;;;;18.80;101471.00;;;;2071230;28;20218;-44
2021/12/22 04:39:11;;;;;;;11.97;10.77;;;;;18.80;101479.00;;;;2070497;28;20210;-44
2021/12/22 04:40:11;;;;;;;10.93;9.93;;;;;18.80;101474.00;;;;2070864;28;20210;-45
2021/12/22 04:41:12;;;;;;;12.30;11.10;;;;;18.80;101473.00;;;;2065469;28;20256;-44
2021/12/22 04:42:13;;;;;;;11.97;10.87;;;;;18.80;101478.00;;;;2071184;28;20214;-45
2021/12/22 04:43:13;;;;;;;12.77;11.68;;;;;18.70;101473.00;;;;2071097;28;20277;-45
2021/12/22 04:44:13;;;;;;;11.57;10.57;;;;;18.80;101471.00;;;;2071219;28;20293;-44
2021/12/22 04:45:14;;;;;;;11.10;10.20;;;;;18.80;101479.00;;;;2065120;28;20297;-45
2021/12/22 04:46:14;;;;;;;11.73;10.63;;;;;18.80;101472.00;;;;2070456;28;20241;-45
2021/12/22 04:47:14;;;;;;;10.97;9.97;;;;;18.70;101470.00;;;;2070393;28;20225;-45
2021/12/22 04:48:15;;;;;;;12.30;11.00;;;;;18.70;101474.00;;;;2070855;28;20251;-45
2021/12/22 04:49:15;;;;;;;11.10;10.10;;;;;18.80;101469.00;;;;2070945;28;20206;-45
2021/12/22 04:50:17;;;;;;;11.40;10.40;;;;;18.80;101484.00;;;;2068263;28;20210;-44
2021/12/22 04:51:27;;;;;;;11.30;10.32;;;;;18.70;101483.00;;;;2070060;28;20233;-46
2021/12/22 04:52:36;;;;;;;11.68;10.68;;;;;18.70;101479.00;;;;2069931;28;20257;-45
2021/12/22 04:53:47;;;;;;;11.98;10.88;;;;;18.70;101476.00;;;;2068719;28;20210;-45
2021/12/22 04:55:01;;;;;;;11.00;10.10;;;;;18.70;101475.00;;;;2067947;28;20302;-48
2021/12/22 04:56:01;;;;;;;11.07;10.15;;;;;18.70;101476.00;;;;2068351;28;20804;-45
2021/12/22 04:57:02;;;;;;;10.93;9.97;;;;;18.70;101471.00;;;;2070377;28;20309;-45
2021/12/22 04:58:02;;;;;;;10.90;9.90;;;;;18.70;101478.00;;;;2070861;28;20213;-44
2021/12/22 04:59:03;;;;;;;11.40;10.30;;;;;18.70;101477.00;;;;2069604;28;20652;-45
2021/12/22 05:00:05;;;;;;;11.30;10.30;;;;;18.70;101479.00;;;;2071052;28;20214;-45
2021/12/22 05:01:05;;;;;;;11.65;10.65;;;;;18.70;101470.00;;;;2069968;28;20207;-45
2021/12/22 05:02:06;;;;;;;10.80;9.80;;;;;18.70;101472.00;;;;2071038;28;20359;-44
2021/12/22 05:03:06;;;;;;;11.07;10.07;;;;;18.70;101471.00;;;;2070669;28;20313;-45
2021/12/22 05:04:06;;;;;;;10.60;9.70;;;;;18.70;101468.00;;;;2070733;28;20214;-45
2021/12/22 05:05:07;;;;;;;11.10;10.10;;;;;18.70;101475.00;;;;2065838;28;20218;-45
2021/12/22 05:06:07;;;;;;;11.27;10.17;;;;;18.70;101465.00;;;;2070796;28;20226;-45
2021/12/22 05:07:07;;;;;;;10.93;9.93;;;;;18.70;101461.00;;;;2070929;28;20218;-45
2021/12/22 05:08:08;;;;;;;10.90;10.00;;;;;18.70;101463.00;;;;2070956;28;20214;-44
2021/12/22 05:09:08;;;;;;;10.93;10.00;;;;;18.70;101458.00;;;;2069655;28;20241;-45
2021/12/22 05:10:09;;;;;;;11.03;10.03;;;;;18.60;101454.00;;;;2067779;28;20218;-45
2021/12/22 05:11:09;;;;;;;11.80;10.67;;;;;18.70;101465.00;;;;2070017;28;20253;-45
2021/12/22 05:12:09;;;;;;;11.50;10.50;;;;;18.70;101461.00;;;;2070590;28;20222;-45
2021/12/22 05:13:10;;;;;;;11.13;10.23;;;;;18.60;101454.00;;;;2071056;28;20224;-45